Time;durP1;ratioP1;P1;durP2;ratioP2;P2;SDS_P1;SDS_P2;PMS_P1;PMS_P2;Temp;Humidity;BMP_temperature;BMP_pressure;BME280_temperature;BME280_humidity;BME280_pressure;Samples;Min_cycle;Max_cycle;Signal;HPM_P1;HPM_P2
2021/09/04 00:02:04;;;;;;;5.82;2.50;;;14.80;99.90;;;;;;4849222;29;20057;-86
2021/09/04 00:04:30;;;;;;;9.23;3.10;;;14.80;99.90;;;;;;4855640;29;20829;-88
2021/09/04 00:06:56;;;;;;;9.40;2.83;;;14.80;99.90;;;;;;4823273;29;20128;-86
2021/09/04 00:09:21;;;;;;;11.07;3.22;;;14.80;99.90;;;;;;4822596;29;20765;-86
2021/09/04 00:11:47;;;;;;;4.95;1.95;;;14.80;99.90;;;;;;4840385;29;20049;-87
2021/09/04 00:14:13;;;;;;;6.25;1.83;;;14.80;99.90;;;;;;4841216;29;20053;-87
2021/09/04 00:16:39;;;;;;;3.70;1.90;;;14.80;99.90;;;;;;4855671;29;20094;-87
2021/09/04 00:19:04;;;;;;;4.75;2.00;;;14.80;99.90;;;;;;4810678;29;20548;-86
2021/09/04 00:21:30;;;;;;;3.95;2.00;;;14.80;99.90;;;;;;4840558;29;20046;-87
2021/09/04 00:23:56;;;;;;;6.68;2.95;;;14.80;99.90;;;;;;4803700;29;20054;-86
2021/09/04 00:26:24;;;;;;;8.57;2.70;;;14.80;99.90;;;;;;4817906;29;20088;-86
2021/09/04 00:28:50;;;;;;;2.92;1.50;;;14.80;99.90;;;;;;4825469;29;20049;-87
2021/09/04 00:31:16;;;;;;;6.03;1.60;;;14.70;99.90;;;;;;4855960;29;20459;-86
2021/09/04 00:33:41;;;;;;;2.83;1.50;;;14.80;99.90;;;;;;4806479;29;20060;-86
2021/09/04 00:36:07;;;;;;;6.30;2.55;;;14.70;99.90;;;;;;4829977;29;20057;-87
2021/09/04 00:38:33;;;;;;;1.60;1.35;;;14.70;99.90;;;;;;4812901;29;20502;-87
2021/09/04 00:40:58;;;;;;;4.43;1.50;;;14.70;99.90;;;;;;4821837;29;20058;-87
2021/09/04 00:43:25;;;;;;;6.50;1.73;;;14.70;99.90;;;;;;4868724;29;20566;-87
2021/09/04 00:45:50;;;;;;;4.80;1.70;;;14.70;99.90;;;;;;4824808;29;20049;-86
2021/09/04 00:48:16;;;;;;;3.45;1.60;;;14.70;99.90;;;;;;4856063;29;20049;-86
2021/09/04 00:50:42;;;;;;;6.47;1.70;;;14.70;99.90;;;;;;4820405;29;20041;-86
2021/09/04 00:53:08;;;;;;;8.93;1.92;;;14.80;99.90;;;;;;4825350;29;20105;-86
2021/09/04 00:55:34;;;;;;;7.22;2.15;;;14.70;99.90;;;;;;4840087;29;20050;-87
2021/09/04 00:58:00;;;;;;;10.73;1.88;;;14.70;99.90;;;;;;4809984;29;20098;-86
2021/09/04 01:00:26;;;;;;;7.75;1.98;;;14.80;99.90;;;;;;4840463;29;20067;-86
2021/09/04 01:02:52;;;;;;;6.55;1.90;;;14.70;99.90;;;;;;4844454;29;20510;-86
2021/09/04 01:05:18;;;;;;;5.43;1.45;;;14.80;99.90;;;;;;4840311;29;20053;-86
2021/09/04 01:07:44;;;;;;;6.55;1.92;;;14.80;99.90;;;;;;4839972;29;20082;-86
2021/09/04 01:10:11;;;;;;;8.32;1.80;;;14.80;99.90;;;;;;4825216;29;20049;-86
2021/09/04 01:12:38;;;;;;;9.88;2.40;;;14.80;99.90;;;;;;4824999;29;20514;-88
2021/09/04 01:15:06;;;;;;;7.05;2.28;;;14.80;99.90;;;;;;4823502;29;20087;-86
2021/09/04 01:17:32;;;;;;;9.68;2.10;;;14.80;99.90;;;;;;4840531;29;20054;-86
2021/09/04 01:19:58;;;;;;;4.95;2.03;;;14.80;99.90;;;;;;4809471;29;20046;-86
2021/09/04 01:22:24;;;;;;;9.60;2.00;;;14.70;99.90;;;;;;4837973;29;20053;-86
2021/09/04 01:24:50;;;;;;;6.53;2.20;;;14.80;99.90;;;;;;4825598;29;20057;-86
2021/09/04 01:27:17;;;;;;;6.88;2.22;;;14.80;99.90;;;;;;4839055;29;20057;-86
2021/09/04 01:29:44;;;;;;;12.07;2.08;;;14.80;99.90;;;;;;4827648;29;20046;-86
2021/09/04 01:32:09;;;;;;;8.52;2.13;;;14.80;99.90;;;;;;4827505;29;20060;-86
2021/09/04 01:34:35;;;;;;;5.18;1.92;;;14.80;99.90;;;;;;4826526;29;20053;-85
2021/09/04 01:37:01;;;;;;;7.20;1.73;;;14.80;99.90;;;;;;4846793;29;20058;-86
2021/09/04 01:39:26;;;;;;;4.88;1.58;;;14.80;99.90;;;;;;4843924;29;20136;-87
2021/09/04 01:41:52;;;;;;;9.90;2.22;;;14.80;99.90;;;;;;4804210;29;20424;-86
2021/09/04 01:44:18;;;;;;;7.38;2.08;;;14.80;99.90;;;;;;4828470;29;20061;-87
2021/09/04 01:46:43;;;;;;;9.10;2.42;;;14.80;99.90;;;;;;4812392;29;20045;-85
2021/09/04 01:49:09;;;;;;;7.82;2.25;;;14.80;99.90;;;;;;4827832;29;20695;-85
2021/09/04 01:51:35;;;;;;;4.18;1.65;;;14.80;99.90;;;;;;4804845;29;20070;-85
2021/09/04 01:54:01;;;;;;;3.70;2.15;;;14.70;99.90;;;;;;4820493;29;20091;-84
2021/09/04 01:56:26;;;;;;;7.32;2.15;;;14.70;99.90;;;;;;4840000;29;20049;-85
2021/09/04 01:58:52;;;;;;;14.90;2.88;;;14.70;99.90;;;;;;4850202;29;20049;-87
2021/09/04 02:01:18;;;;;;;5.25;1.90;;;14.70;99.90;;;;;;4858226;29;20053;-85
2021/09/04 02:03:44;;;;;;;5.15;1.88;;;14.70;99.90;;;;;;4857865;29;20570;-85
2021/09/04 02:06:10;;;;;;;9.27;2.17;;;14.70;99.90;;;;;;4822996;29;20049;-85
2021/09/04 02:08:35;;;;;;;11.35;2.78;;;14.70;99.90;;;;;;4839381;29;20105;-85
2021/09/04 02:11:01;;;;;;;5.97;2.42;;;14.70;99.90;;;;;;4812122;29;20045;-85
2021/09/04 02:13:28;;;;;;;6.85;1.88;;;14.70;99.90;;;;;;4812873;29;20054;-85
2021/09/04 02:15:54;;;;;;;8.63;1.98;;;14.70;99.90;;;;;;4839950;29;20101;-84
2021/09/04 02:18:20;;;;;;;11.95;2.75;;;14.70;99.90;;;;;;4858350;29;20053;-84
2021/09/04 02:20:47;;;;;;;4.93;1.95;;;14.70;99.90;;;;;;4827013;29;20515;-84
2021/09/04 02:23:13;;;;;;;9.30;1.98;;;14.70;99.90;;;;;;4827702;29;20063;-84
2021/09/04 02:25:39;;;;;;;5.43;2.03;;;14.70;99.90;;;;;;4825110;29;20061;-85
2021/09/04 02:28:04;;;;;;;9.07;1.65;;;14.70;99.90;;;;;;4839935;29;20259;-85
2021/09/04 02:30:30;;;;;;;7.60;1.80;;;14.70;99.90;;;;;;4827468;29;20572;-85
2021/09/04 02:32:56;;;;;;;9.10;1.85;;;14.60;99.90;;;;;;4828960;29;20050;-85
2021/09/04 02:35:22;;;;;;;5.57;2.00;;;14.60;99.90;;;;;;4827471;29;20573;-86
2021/09/04 02:37:48;;;;;;;7.68;1.88;;;14.60;99.90;;;;;;4841852;29;20061;-85
2021/09/04 02:40:14;;;;;;;7.82;2.17;;;14.60;99.90;;;;;;4827171;29;20106;-85
2021/09/04 02:42:40;;;;;;;12.18;2.38;;;14.70;99.90;;;;;;4842842;29;20056;-85
2021/09/04 02:45:06;;;;;;;7.05;2.00;;;14.60;99.90;;;;;;4811597;29;20064;-85
2021/09/04 02:47:31;;;;;;;6.00;1.80;;;14.60;99.90;;;;;;4827247;29;20499;-85
2021/09/04 02:49:57;;;;;;;6.03;1.98;;;14.60;99.90;;;;;;4824784;29;20056;-85
2021/09/04 02:52:23;;;;;;;3.88;1.88;;;14.60;99.90;;;;;;4849788;29;20042;-85
2021/09/04 02:54:49;;;;;;;7.28;2.20;;;14.70;99.90;;;;;;4824184;29;20057;-85
2021/09/04 02:57:15;;;;;;;4.82;1.75;;;14.70;99.90;;;;;;4812283;29;20092;-84
2021/09/04 02:59:40;;;;;;;13.32;2.40;;;14.70;99.90;;;;;;4827112;29;20081;-85
2021/09/04 03:02:06;;;;;;;7.65;2.28;;;14.60;99.90;;;;;;4822730;29;20052;-84
2021/09/04 03:04:32;;;;;;;11.52;2.20;;;14.60;99.90;;;;;;4815501;29;20096;-84
2021/09/04 03:06:57;;;;;;;7.00;2.10;;;14.60;99.90;;;;;;4797009;29;20476;-84
2021/09/04 03:09:23;;;;;;;7.28;2.38;;;14.60;99.90;;;;;;4831108;29;20475;-84
2021/09/04 03:11:49;;;;;;;4.45;1.83;;;14.60;99.90;;;;;;4841205;29;20483;-86
2021/09/04 03:14:15;;;;;;;5.57;1.75;;;14.60;99.90;;;;;;4837562;29;20057;-84
2021/09/04 03:16:40;;;;;;;8.15;2.08;;;14.60;99.90;;;;;;4827003;29;20045;-84
2021/09/04 03:19:06;;;;;;;6.20;2.00;;;14.60;99.90;;;;;;4825585;29;20593;-84
2021/09/04 03:21:32;;;;;;;4.63;2.03;;;14.60;99.90;;;;;;4826408;29;20136;-84
2021/09/04 03:23:57;;;;;;;7.40;2.05;;;14.60;99.90;;;;;;4855393;29;20057;-84
2021/09/04 03:26:23;;;;;;;7.75;2.08;;;14.60;99.90;;;;;;4824680;29;20045;-85
2021/09/04 03:28:49;;;;;;;4.13;1.90;;;14.60;99.90;;;;;;4826225;29;20052;-88
2021/09/04 03:31:15;;;;;;;9.52;2.45;;;14.60;99.90;;;;;;4825326;29;20168;-85
2021/09/04 03:33:40;;;;;;;9.30;3.20;;;14.60;99.90;;;;;;4841715;29;20042;-85
2021/09/04 03:36:06;;;;;;;6.97;2.22;;;14.60;99.90;;;;;;4824415;29;20078;-85
2021/09/04 03:38:32;;;;;;;9.52;2.25;;;14.60;99.90;;;;;;4811277;29;20055;-85
2021/09/04 03:40:58;;;;;;;6.05;1.70;;;14.60;99.90;;;;;;4826035;29;20901;-85
2021/09/04 03:43:24;;;;;;;8.48;2.03;;;14.60;99.90;;;;;;4811017;29;20493;-85
2021/09/04 03:45:49;;;;;;;4.88;1.92;;;14.60;99.90;;;;;;4821759;29;20475;-87
2021/09/04 03:48:15;;;;;;;9.82;3.08;;;14.60;99.90;;;;;;4833340;29;20049;-85
2021/09/04 03:50:41;;;;;;;13.27;2.53;;;14.60;99.90;;;;;;4825876;29;20053;-85
2021/09/04 03:53:06;;;;;;;4.35;1.92;;;14.60;99.90;;;;;;4810044;29;20061;-86
2021/09/04 03:55:32;;;;;;;5.75;2.28;;;14.60;99.90;;;;;;4825871;29;20136;-86
2021/09/04 03:57:58;;;;;;;9.30;2.28;;;14.60;99.90;;;;;;4795128;29;20109;-85
2021/09/04 04:00:24;;;;;;;6.43;1.80;;;14.60;99.90;;;;;;4826123;29;20082;-85
2021/09/04 04:02:49;;;;;;;13.27;3.08;;;14.60;99.90;;;;;;4806969;29;20490;-88
2021/09/04 04:05:15;;;;;;;7.05;1.85;;;14.50;99.90;;;;;;4823900;29;20061;-85
2021/09/04 04:07:41;;;;;;;5.90;1.85;;;14.60;99.90;;;;;;4811157;29;20049;-84
2021/09/04 04:10:07;;;;;;;5.45;2.00;;;14.60;99.90;;;;;;4824866;29;20053;-85
2021/09/04 04:12:34;;;;;;;4.57;1.48;;;14.60;99.90;;;;;;4840743;29;20050;-85
2021/09/04 04:14:59;;;;;;;4.63;1.58;;;14.60;99.90;;;;;;4840275;29;20061;-85
2021/09/04 04:17:25;;;;;;;7.30;1.73;;;14.60;99.90;;;;;;4823583;29;20057;-84
2021/09/04 04:19:51;;;;;;;4.95;1.90;;;14.60;99.90;;;;;;4825288;29;20041;-89
2021/09/04 04:22:16;;;;;;;12.23;2.17;;;14.60;99.90;;;;;;4825680;29;20049;-85
2021/09/04 04:24:42;;;;;;;6.15;1.65;;;14.50;99.90;;;;;;4840737;29;20049;-86
2021/09/04 04:27:08;;;;;;;13.60;2.15;;;14.50;99.90;;;;;;4823630;29;20562;-85
2021/09/04 04:29:34;;;;;;;3.22;1.75;;;14.50;99.90;;;;;;4825510;29;20507;-85
2021/09/04 04:31:59;;;;;;;4.57;2.25;;;14.50;99.90;;;;;;4839218;29;20137;-85
2021/09/04 04:34:25;;;;;;;7.68;1.90;;;14.60;99.90;;;;;;4825949;29;20084;-85
2021/09/04 04:36:51;;;;;;;10.55;2.13;;;14.50;99.90;;;;;;4823236;29;20054;-89
2021/09/04 04:39:17;;;;;;;10.23;2.05;;;14.60;99.90;;;;;;4836732;29;20049;-85
2021/09/04 04:41:42;;;;;;;3.33;1.67;;;14.50;99.90;;;;;;4840806;29;20049;-86
2021/09/04 04:44:08;;;;;;;7.15;1.73;;;14.50;99.90;;;;;;4825216;29;20093;-86
2021/09/04 04:46:34;;;;;;;4.28;1.45;;;14.60;99.90;;;;;;4824364;29;20075;-86
2021/09/04 04:48:59;;;;;;;8.82;1.70;;;14.60;99.90;;;;;;4843024;29;20065;-86
2021/09/04 04:51:25;;;;;;;9.13;2.10;;;14.60;99.90;;;;;;4840910;29;20057;-86
2021/09/04 04:53:51;;;;;;;4.80;1.67;;;14.60;99.90;;;;;;4840238;29;20546;-86
2021/09/04 04:56:17;;;;;;;5.93;1.60;;;14.60;99.90;;;;;;4824772;29;20054;-86
2021/09/04 04:58:42;;;;;;;12.38;2.17;;;14.60;99.90;;;;;;4844072;29;20045;-86
2021/09/04 05:01:08;;;;;;;4.75;1.48;;;14.60;99.90;;;;;;4829353;29;20072;-86
2021/09/04 05:03:34;;;;;;;5.43;1.65;;;14.60;99.90;;;;;;4849922;29;20061;-87
2021/09/04 05:06:00;;;;;;;4.57;1.55;;;14.60;99.90;;;;;;4837383;29;20084;-86
2021/09/04 05:08:26;;;;;;;5.18;1.60;;;14.60;99.90;;;;;;4829164;29;20053;-85
2021/09/04 05:10:53;;;;;;;12.63;2.00;;;14.60;99.90;;;;;;4828932;29;20080;-86
2021/09/04 05:13:18;;;;;;;9.55;1.58;;;14.70;99.90;;;;;;4828455;29;20599;-85
2021/09/04 05:15:44;;;;;;;5.05;1.40;;;14.70;99.90;;;;;;4828915;29;20045;-85
2021/09/04 05:18:10;;;;;;;10.27;1.20;;;14.60;99.90;;;;;;4862033;29;20448;-86
2021/09/04 05:20:38;;;;;;;6.43;1.50;;;14.70;99.90;;;;;;4844112;29;20057;-86
2021/09/04 05:23:03;;;;;;;7.03;1.40;;;14.60;99.90;;;;;;4827973;29;20562;-86
2021/09/04 05:25:29;;;;;;;7.90;1.90;;;14.70;99.90;;;;;;4828839;29;20124;-87
2021/09/04 05:27:55;;;;;;;5.80;1.23;;;14.70;99.90;;;;;;4820743;29;20141;-86
2021/09/04 05:30:20;;;;;;;15.70;2.28;;;14.60;99.90;;;;;;4827684;29;20081;-86
2021/09/04 05:32:46;;;;;;;5.85;1.40;;;14.70;99.90;;;;;;4827520;29;20157;-86
2021/09/04 05:35:12;;;;;;;4.45;1.35;;;14.60;99.90;;;;;;4849443;29;20483;-86
2021/09/04 05:37:37;;;;;;;8.60;1.73;;;14.70;99.90;;;;;;4828064;29;20965;-85
2021/09/04 05:40:04;;;;;;;4.57;1.27;;;14.70;99.90;;;;;;4852913;29;20156;-86
2021/09/04 05:42:30;;;;;;;3.83;1.50;;;14.80;99.90;;;;;;4859348;29;20057;-87
2021/09/04 05:44:55;;;;;;;6.05;1.05;;;14.80;99.90;;;;;;4828553;29;20387;-86
2021/09/04 05:47:21;;;;;;;3.35;1.50;;;14.80;99.90;;;;;;4826536;29;20151;-86
2021/09/04 05:49:47;;;;;;;4.78;1.63;;;14.80;99.90;;;;;;4822868;29;20486;-86
2021/09/04 05:52:12;;;;;;;3.42;1.35;;;14.90;99.90;;;;;;4827808;29;20057;-86
2021/09/04 05:54:38;;;;;;;7.18;1.60;;;14.90;99.90;;;;;;4828070;29;20065;-86
2021/09/04 05:57:04;;;;;;;6.45;1.63;;;14.90;99.90;;;;;;4823445;29;20494;-86
2021/09/04 05:59:30;;;;;;;4.50;1.08;;;14.90;99.90;;;;;;4843565;29;20049;-86
2021/09/04 06:01:55;;;;;;;3.38;1.10;;;15.00;99.90;;;;;;4824523;29;20110;-88
2021/09/04 06:04:21;;;;;;;2.85;1.10;;;15.00;99.90;;;;;;4839238;29;20049;-86
2021/09/04 06:06:47;;;;;;;8.48;1.77;;;15.00;99.90;;;;;;4827958;29;20055;-86
2021/09/04 06:09:13;;;;;;;6.85;1.60;;;15.00;99.90;;;;;;4842194;29;20041;-86
2021/09/04 06:11:38;;;;;;;2.08;1.40;;;15.10;99.90;;;;;;4858641;29;20049;-86
2021/09/04 06:14:05;;;;;;;8.95;1.90;;;15.20;99.90;;;;;;4842872;29;20056;-88
2021/09/04 06:16:31;;;;;;;3.50;1.38;;;15.10;99.90;;;;;;4843332;29;20046;-86
2021/09/04 06:18:57;;;;;;;5.07;1.63;;;15.20;99.90;;;;;;4850422;29;20067;-86
2021/09/04 06:21:23;;;;;;;4.22;1.20;;;15.20;99.90;;;;;;4857537;29;20096;-87
2021/09/04 06:23:48;;;;;;;3.97;1.27;;;15.30;99.90;;;;;;4827821;29;20057;-86
2021/09/04 06:26:14;;;;;;;5.18;1.63;;;15.30;99.90;;;;;;4826922;29;20778;-85
2021/09/04 06:28:40;;;;;;;6.18;1.75;;;15.40;99.90;;;;;;4822056;29;20134;-87
2021/09/04 06:31:06;;;;;;;9.07;1.63;;;15.50;99.90;;;;;;4796999;29;20054;-89
2021/09/04 06:33:31;;;;;;;4.18;1.45;;;15.50;99.90;;;;;;4840757;29;20107;-86
2021/09/04 06:35:57;;;;;;;5.28;1.52;;;15.50;99.90;;;;;;4851798;29;20046;-87
2021/09/04 06:38:23;;;;;;;6.63;1.40;;;15.60;99.90;;;;;;4857174;29;20129;-87
2021/09/04 06:40:48;;;;;;;7.03;1.55;;;15.60;99.90;;;;;;4835520;29;20141;-85
2021/09/04 06:43:14;;;;;;;6.45;1.50;;;15.60;99.90;;;;;;4842166;29;20042;-86
2021/09/04 06:45:40;;;;;;;8.73;1.20;;;15.70;99.90;;;;;;4827707;29;20102;-85
2021/09/04 06:48:06;;;;;;;8.32;1.85;;;15.70;99.90;;;;;;4836860;29;20163;-87
2021/09/04 06:50:32;;;;;;;6.35;1.52;;;15.70;99.90;;;;;;4841204;29;20045;-86
2021/09/04 06:52:58;;;;;;;6.50;2.08;;;15.70;99.90;;;;;;4842601;29;20049;-86
2021/09/04 06:55:23;;;;;;;7.57;1.58;;;15.80;99.90;;;;;;4841328;29;20589;-86
2021/09/04 06:57:49;;;;;;;7.57;1.85;;;15.80;99.90;;;;;;4842509;29;20076;-85
2021/09/04 07:00:16;;;;;;;10.07;2.28;;;15.90;99.90;;;;;;4810290;29;20065;-86
2021/09/04 07:02:41;;;;;;;4.80;1.48;;;15.90;99.90;;;;;;4830925;29;20499;-88
2021/09/04 07:05:07;;;;;;;4.03;1.70;;;16.00;99.90;;;;;;4836642;29;20057;-89
2021/09/04 07:07:33;;;;;;;4.75;2.15;;;16.00;99.90;;;;;;4855868;29;20081;-85
2021/09/04 07:09:59;;;;;;;5.10;1.70;;;16.10;99.90;;;;;;4833436;29;20049;-86
2021/09/04 07:12:24;;;;;;;5.88;1.92;;;16.10;99.90;;;;;;4856125;29;20105;-86
2021/09/04 07:14:50;;;;;;;5.80;1.42;;;16.20;99.90;;;;;;4834989;29;20517;-85
2021/09/04 07:17:16;;;;;;;4.10;1.73;;;16.30;99.90;;;;;;4855722;29;20112;-87
2021/09/04 07:19:43;;;;;;;7.70;1.77;;;16.40;99.90;;;;;;4856779;29;20046;-87
2021/09/04 07:22:08;;;;;;;8.43;1.77;;;16.40;99.90;;;;;;4864529;29;20410;-88
2021/09/04 07:24:34;;;;;;;5.13;2.38;;;16.40;99.90;;;;;;4856916;29;20053;-88
2021/09/04 07:27:00;;;;;;;7.47;2.10;;;16.50;99.90;;;;;;4820635;29;20093;-87
2021/09/04 07:29:26;;;;;;;4.10;1.77;;;16.60;99.90;;;;;;4807815;29;20144;-86
2021/09/04 07:31:52;;;;;;;5.93;1.88;;;16.70;99.90;;;;;;4834191;29;20120;-88
2021/09/04 07:34:17;;;;;;;5.00;2.22;;;16.70;99.90;;;;;;4855063;29;20045;-87
2021/09/04 07:36:43;;;;;;;6.85;2.20;;;16.80;99.90;;;;;;4841155;29;20057;-88
2021/09/04 07:39:09;;;;;;;3.50;1.75;;;16.80;99.90;;;;;;4821131;29;20061;-89
2021/09/04 07:41:35;;;;;;;5.93;2.10;;;16.80;99.90;;;;;;4826041;29;20053;-88
2021/09/04 07:44:00;;;;;;;6.78;2.13;;;16.80;99.90;;;;;;4804829;29;20483;-87
2021/09/04 07:46:26;;;;;;;12.68;2.65;;;16.80;99.90;;;;;;4850932;29;20109;-86
2021/09/04 07:48:52;;;;;;;5.32;2.25;;;16.90;99.90;;;;;;4818245;29;20053;-88
2021/09/04 07:51:17;;;;;;;10.90;2.70;;;17.00;99.90;;;;;;4839792;29;20053;-88
2021/09/04 07:53:43;;;;;;;9.93;2.55;;;17.10;99.90;;;;;;4856384;29;20499;-87
2021/09/04 07:56:09;;;;;;;4.57;2.22;;;17.20;99.90;;;;;;4851766;29;20052;-87
2021/09/04 07:58:35;;;;;;;5.07;2.63;;;17.30;99.90;;;;;;4855438;29;20053;-88
2021/09/04 08:01:01;;;;;;;8.07;2.28;;;17.30;99.90;;;;;;4835309;29;20410;-87
2021/09/04 08:03:26;;;;;;;7.07;2.53;;;17.30;99.90;;;;;;4854035;29;20050;-89
2021/09/04 08:05:52;;;;;;;6.68;2.40;;;17.30;99.90;;;;;;4816897;29;20057;-88
2021/09/04 08:08:18;;;;;;;6.55;2.10;;;17.40;99.90;;;;;;4838562;29;20057;-87
2021/09/04 08:10:44;;;;;;;7.70;2.40;;;17.50;99.90;;;;;;4828920;29;20041;-88
2021/09/04 08:13:11;;;;;;;9.50;2.92;;;17.60;99.90;;;;;;4824656;29;20462;-87
2021/09/04 08:15:38;;;;;;;5.57;2.33;;;17.70;99.90;;;;;;4835681;29;20499;-88
2021/09/04 08:18:04;;;;;;;6.90;2.50;;;17.90;99.90;;;;;;4819862;29;20394;-88
2021/09/04 08:20:30;;;;;;;6.18;2.40;;;18.00;99.90;;;;;;4853359;29;20056;-88
2021/09/04 08:22:56;;;;;;;11.95;3.70;;;18.10;99.90;;;;;;4810338;29;20057;-88
2021/09/04 08:25:21;;;;;;;5.70;2.38;;;18.10;99.90;;;;;;4825600;29;20046;-87
2021/09/04 08:27:47;;;;;;;9.40;2.40;;;18.00;99.90;;;;;;4837213;29;20494;-88
2021/09/04 08:30:14;;;;;;;5.00;2.15;;;18.10;99.90;;;;;;4847264;29;20054;-88
2021/09/04 08:32:40;;;;;;;4.07;2.25;;;18.20;99.90;;;;;;4840372;29;20113;-88
2021/09/04 08:35:06;;;;;;;7.50;2.42;;;18.30;99.90;;;;;;4840817;29;20398;-87
2021/09/04 08:37:32;;;;;;;9.52;2.80;;;18.30;99.90;;;;;;4830911;29;20053;-88
2021/09/04 08:39:57;;;;;;;11.88;3.20;;;18.40;99.90;;;;;;4847487;29;20046;-88
2021/09/04 08:42:23;;;;;;;4.65;2.30;;;18.30;99.90;;;;;;4834671;29;20045;-88
2021/09/04 08:44:49;;;;;;;11.48;3.58;;;18.20;99.90;;;;;;4817879;29;20045;-88
2021/09/04 08:47:18;;;;;;;13.27;4.85;;;18.20;99.90;;;;;;4853480;29;20886;-89
2021/09/04 08:49:46;;;;;;;11.50;4.90;;;18.20;99.90;;;;;;4839905;29;20052;-88
2021/09/04 08:52:12;;;;;;;11.43;5.18;;;18.10;99.90;;;;;;4836182;29;20190;-88
2021/09/04 08:54:38;;;;;;;11.23;5.40;;;18.00;99.90;;;;;;4839310;29;20113;-89
2021/09/04 08:57:05;;;;;;;15.98;6.32;;;17.90;99.90;;;;;;4849096;29;20049;-88
2021/09/04 08:59:31;;;;;;;13.52;5.60;;;17.80;99.90;;;;;;4854867;29;20061;-89
2021/09/04 09:01:57;;;;;;;11.52;5.55;;;17.80;99.90;;;;;;4847350;29;20114;-88
2021/09/04 09:04:24;;;;;;;11.40;5.65;;;17.70;99.90;;;;;;4853468;29;20053;-89
2021/09/04 09:06:50;;;;;;;12.18;4.68;;;17.60;99.90;;;;;;4848142;29;20091;-88
2021/09/04 09:09:17;;;;;;;11.52;5.25;;;17.60;99.90;;;;;;4855494;29;20050;-87
2021/09/04 09:11:43;;;;;;;11.65;5.50;;;17.50;99.90;;;;;;4854428;29;20053;-88
2021/09/04 09:14:08;;;;;;;11.25;5.60;;;17.50;99.90;;;;;;4807439;29;20483;-86
2021/09/04 09:16:35;;;;;;;14.95;5.60;;;17.40;99.90;;;;;;4854211;29;20046;-88
2021/09/04 09:19:04;;;;;;;13.48;5.20;;;17.40;99.90;;;;;;4852793;29;20084;-88
2021/09/04 09:21:39;;;;;;;13.95;6.50;;;17.50;99.90;;;;;;4856213;29;20045;-88
2021/09/04 09:24:08;;;;;;;11.63;5.57;;;17.60;99.90;;;;;;4836181;29;20132;-87
2021/09/04 09:26:34;;;;;;;13.03;5.40;;;17.70;99.90;;;;;;4837760;29;20452;-87
2021/09/04 09:29:23;;;;;;;15.38;5.68;;;17.70;99.90;;;;;;4828504;29;20310;-89
2021/09/04 09:31:59;;;;;;;12.57;5.90;;;17.80;99.90;;;;;;4839825;29;20125;-88
2021/09/04 09:34:25;;;;;;;10.18;5.05;;;17.80;99.90;;;;;;4839515;29;20064;-88
2021/09/04 09:36:56;;;;;;;12.65;5.53;;;17.90;99.90;;;;;;4832700;29;20620;-87
2021/09/04 09:39:43;;;;;;;11.13;5.50;;;18.00;99.90;;;;;;4855133;29;20494;-89
2021/09/04 09:42:10;;;;;;;11.88;5.40;;;18.20;99.90;;;;;;4855873;29;20503;-88
2021/09/04 09:44:38;;;;;;;11.70;5.13;;;18.40;99.90;;;;;;4858017;29;20110;-88
2021/09/04 09:47:07;;;;;;;11.90;5.65;;;18.50;99.90;;;;;;4837646;29;20053;-88
2021/09/04 09:49:39;;;;;;;;;;;18.60;99.90;;;;;;4851105;29;20049;-87
2021/09/04 09:52:11;;;;;;;16.20;5.82;;;18.60;99.90;;;;;;4838199;29;19924;-87
2021/09/04 09:54:38;;;;;;;13.38;4.78;;;18.60;99.90;;;;;;4858006;29;20085;-88
2021/09/04 09:57:06;;;;;;;9.57;4.82;;;18.50;99.90;;;;;;4868825;29;20132;-88
2021/09/04 09:59:32;;;;;;;11.77;5.03;;;18.40;99.90;;;;;;4842683;29;20057;-88
2021/09/04 10:02:16;;;;;;;13.75;5.15;;;18.40;99.90;;;;;;4852334;29;20123;-88
2021/09/04 10:04:46;;;;;;;8.50;4.32;;;18.30;99.90;;;;;;4858118;29;20240;-88
2021/09/04 10:07:12;;;;;;;10.32;4.80;;;18.40;99.90;;;;;;4854192;29;20048;-87
2021/09/04 10:09:39;;;;;;;13.02;4.90;;;18.60;99.90;;;;;;4855453;29;20037;-87
2021/09/04 10:12:07;;;;;;;12.18;4.72;;;18.80;99.90;;;;;;4838259;29;20054;-89
2021/09/04 10:14:34;;;;;;;11.35;4.47;;;18.90;99.90;;;;;;4833539;29;20045;-88
2021/09/04 10:17:02;;;;;;;7.22;4.18;;;18.80;99.90;;;;;;4814622;29;20056;-89
2021/09/04 10:19:30;;;;;;;11.00;4.60;;;18.70;99.90;;;;;;4832024;29;20057;-89
2021/09/04 10:22:03;;;;;;;10.18;4.53;;;18.60;99.90;;;;;;4840309;29;20076;-89
2021/09/04 10:24:49;;;;;;;15.88;3.80;;;18.50;99.90;;;;;;4842122;29;20053;-89
2021/09/04 10:27:29;;;;;;;9.90;3.90;;;18.40;99.90;;;;;;4843007;29;20045;-89
2021/09/04 10:29:55;;;;;;;11.05;3.75;;;18.30;99.90;;;;;;4841565;29;20053;-89
2021/09/04 10:32:21;;;;;;;11.43;3.83;;;18.20;99.90;;;;;;4826481;29;20104;-87
2021/09/04 10:35:02;;;;;;;8.82;3.20;;;18.20;99.90;;;;;;4826573;29;20071;-89
2021/09/04 10:37:28;;;;;;;8.50;3.20;;;18.10;99.90;;;;;;4842577;29;20057;-89
2021/09/04 10:40:02;;;;;;;10.23;3.78;;;18.10;99.90;;;;;;4840764;29;20046;-88
2021/09/04 10:42:35;;;;;;;8.00;3.67;;;18.10;99.90;;;;;;4827559;29;20064;-89
2021/09/04 10:45:11;;;;;;;10.10;4.15;;;18.10;99.90;;;;;;4827326;29;20053;-88
2021/09/04 10:47:49;;;;;;;11.93;3.83;;;18.20;99.90;;;;;;4833095;29;20406;-88
2021/09/04 10:50:21;;;;;;;11.82;3.50;;;18.30;99.90;;;;;;4837492;29;20041;-89
2021/09/04 10:52:46;;;;;;;9.93;4.35;;;18.30;99.90;;;;;;4857321;29;20050;-88
2021/09/04 10:55:24;;;;;;;6.05;3.22;;;18.30;99.90;;;;;;4822763;29;20080;-88
2021/09/04 10:57:53;;;;;;;8.88;3.90;;;18.30;99.90;;;;;;4823602;29;20109;-88
2021/09/04 11:00:22;;;;;;;13.73;4.03;;;18.30;99.90;;;;;;4851467;29;20045;-88
2021/09/04 11:02:59;;;;;;;5.45;3.33;;;18.30;99.90;;;;;;4856983;29;20061;-88
2021/09/04 11:05:25;;;;;;;13.38;3.67;;;18.30;99.90;;;;;;4845681;29;20710;-89
2021/09/04 11:08:04;;;;;;;9.00;3.88;;;18.30;99.90;;;;;;4834276;29;20049;-87
2021/09/04 11:10:31;;;;;;;4.47;3.10;;;18.40;99.90;;;;;;4841629;29;20053;-88
2021/09/04 11:13:39;;;;;;;12.75;3.58;;;18.40;99.90;;;;;;4842127;29;20057;-88
2021/09/04 11:16:28;;;;;;;7.93;3.85;;;18.60;99.90;;;;;;4853671;29;20144;-88
2021/09/04 11:18:54;;;;;;;5.90;3.25;;;18.70;99.90;;;;;;4834914;29;20065;-88
2021/09/04 11:21:20;;;;;;;6.55;3.08;;;18.80;99.90;;;;;;4841968;29;20060;-88
2021/09/04 11:23:49;;;;;;;6.10;3.00;;;18.90;99.90;;;;;;4826024;29;20085;-89
2021/09/04 11:26:14;;;;;;;10.43;3.60;;;18.90;99.90;;;;;;4837346;29;20057;-88
2021/09/04 11:28:40;;;;;;;8.90;3.58;;;18.70;99.90;;;;;;4840938;29;20051;-88
2021/09/04 11:31:06;;;;;;;11.63;3.50;;;18.60;99.90;;;;;;4835167;29;20049;-87
2021/09/04 11:33:32;;;;;;;8.35;3.30;;;18.50;99.90;;;;;;4823499;29;20045;-89
2021/09/04 11:35:57;;;;;;;6.60;3.78;;;18.50;99.90;;;;;;4823279;29;20486;-88
2021/09/04 11:38:24;;;;;;;6.47;3.30;;;18.50;99.90;;;;;;4853846;29;20053;-88
2021/09/04 11:40:51;;;;;;;5.90;3.70;;;18.60;99.90;;;;;;4817095;29;20072;-88
2021/09/04 11:43:24;;;;;;;11.88;3.63;;;18.70;99.90;;;;;;4829007;29;20549;-88
2021/09/04 11:46:00;;;;;;;7.63;3.60;;;18.70;99.90;;;;;;4840713;29;20081;-88
2021/09/04 11:48:26;;;;;;;9.80;4.47;;;18.70;99.90;;;;;;4856744;29;20402;-89
2021/09/04 11:50:52;;;;;;;12.13;3.47;;;18.70;99.90;;;;;;4800917;29;20088;-88
2021/09/04 11:53:18;;;;;;;6.00;3.40;;;18.60;99.90;;;;;;4841509;29;20077;-88
2021/09/04 11:55:43;;;;;;;7.20;3.72;;;18.60;99.90;;;;;;4825156;29;20463;-89
2021/09/04 11:58:12;;;;;;;5.82;2.85;;;18.50;99.90;;;;;;4821447;29;20055;-88
2021/09/04 12:00:42;;;;;;;6.07;3.38;;;18.50;99.90;;;;;;4854665;29;20102;-89
2021/09/04 12:03:13;;;;;;;18.73;4.47;;;18.50;99.90;;;;;;4836550;29;20498;-88
2021/09/04 12:05:45;;;;;;;7.43;3.33;;;18.40;99.90;;;;;;4855442;29;20050;-89
2021/09/04 12:08:31;;;;;;;11.43;3.83;;;18.50;99.90;;;;;;4851405;29;20383;-88
2021/09/04 12:11:02;;;;;;;6.80;3.85;;;18.60;99.90;;;;;;4855606;29;20509;-88
2021/09/04 12:13:29;;;;;;;6.10;3.42;;;18.50;99.90;;;;;;4841188;29;20404;-88
2021/09/04 12:15:57;;;;;;;6.78;3.33;;;18.40;99.90;;;;;;4837922;29;20841;-88
2021/09/04 12:18:38;;;;;;;5.97;3.25;;;18.30;99.90;;;;;;4856619;29;20053;-88
2021/09/04 12:21:23;;;;;;;8.75;3.38;;;18.30;99.90;;;;;;4840762;29;20057;-88
2021/09/04 12:23:52;;;;;;;8.40;4.03;;;18.30;99.90;;;;;;4840326;29;20049;-88
2021/09/04 12:26:18;;;;;;;8.10;3.35;;;18.30;99.90;;;;;;4840919;29;20487;-88
2021/09/04 12:28:45;;;;;;;8.23;2.85;;;18.40;99.90;;;;;;4825261;29;20060;-88
2021/09/04 12:31:13;;;;;;;10.85;3.83;;;18.50;99.90;;;;;;4820311;29;20057;-88
2021/09/04 12:33:51;;;;;;;8.85;3.35;;;18.50;99.90;;;;;;4825672;29;20141;-89
2021/09/04 12:36:26;;;;;;;9.00;3.42;;;18.50;99.90;;;;;;4837635;29;20057;-89
2021/09/04 12:38:57;;;;;;;7.65;3.72;;;18.50;99.90;;;;;;4840563;29;20050;-89
2021/09/04 12:41:31;;;;;;;6.13;3.00;;;18.60;99.90;;;;;;4840223;29;20443;-88
2021/09/04 12:44:03;;;;;;;6.60;3.45;;;18.60;99.90;;;;;;4821983;29;20054;-88
2021/09/04 12:46:34;;;;;;;7.35;3.05;;;18.80;99.90;;;;;;4869143;29;20057;-88